sensor_id;sensor_type;location;lat;lon;timestamp;P1;durP1;ratioP1;P2;durP2;ratioP2
22211;SDS011;11275;52.488;13.462;2022-12-07T00:01:05;11.80;;;6.25;;
22211;SDS011;11275;52.488;13.462;2022-12-07T00:03:32;7.95;;;5.30;;
22211;SDS011;11275;52.488;13.462;2022-12-07T00:05:58;7.95;;;5.60;;
22211;SDS011;11275;52.488;13.462;2022-12-07T00:08:24;8.95;;;5.72;;
22211;SDS011;11275;52.488;13.462;2022-12-07T00:10:49;8.52;;;5.80;;
22211;SDS011;11275;52.488;13.462;2022-12-07T00:13:15;10.75;;;5.82;;
22211;SDS011;11275;52.488;13.462;2022-12-07T00:15:41;8.07;;;5.85;;
22211;SDS011;11275;52.488;13.462;2022-12-07T00:18:06;9.65;;;6.05;;
22211;SDS011;11275;52.488;13.462;2022-12-07T00:20:32;10.30;;;6.28;;
22211;SDS011;11275;52.488;13.462;2022-12-07T00:22:58;7.43;;;5.50;;
22211;SDS011;11275;52.488;13.462;2022-12-07T00:25:24;8.43;;;5.82;;
22211;SDS011;11275;52.488;13.462;2022-12-07T00:27:50;7.70;;;5.85;;
22211;SDS011;11275;52.488;13.462;2022-12-07T00:30:18;7.15;;;5.00;;
22211;SDS011;11275;52.488;13.462;2022-12-07T00:32:43;7.13;;;5.40;;
22211;SDS011;11275;52.488;13.462;2022-12-07T00:35:09;7.13;;;5.25;;
22211;SDS011;11275;52.488;13.462;2022-12-07T00:37:34;7.28;;;5.68;;
22211;SDS011;11275;52.488;13.462;2022-12-07T00:40:00;8.63;;;5.53;;
22211;SDS011;11275;52.488;13.462;2022-12-07T00:42:26;6.63;;;5.50;;
22211;SDS011;11275;52.488;13.462;2022-12-07T00:44:51;8.18;;;5.55;;
22211;SDS011;11275;52.488;13.462;2022-12-07T00:47:17;5.45;;;4.35;;
22211;SDS011;11275;52.488;13.462;2022-12-07T00:49:42;6.65;;;5.20;;
22211;SDS011;11275;52.488;13.462;2022-12-07T00:52:08;6.90;;;5.05;;
22211;SDS011;11275;52.488;13.462;2022-12-07T00:54:34;5.50;;;4.68;;
22211;SDS011;11275;52.488;13.462;2022-12-07T00:56:59;6.28;;;4.68;;
22211;SDS011;11275;52.488;13.462;2022-12-07T00:59:25;5.75;;;4.60;;
22211;SDS011;11275;52.488;13.462;2022-12-07T01:01:50;6.32;;;4.90;;
22211;SDS011;11275;52.488;13.462;2022-12-07T01:04:16;6.13;;;4.50;;
22211;SDS011;11275;52.488;13.462;2022-12-07T01:06:42;5.22;;;4.10;;
22211;SDS011;11275;52.488;13.462;2022-12-07T01:09:07;5.38;;;4.20;;
22211;SDS011;11275;52.488;13.462;2022-12-07T01:11:33;5.47;;;4.13;;
22211;SDS011;11275;52.488;13.462;2022-12-07T01:13:59;5.95;;;4.88;;
22211;SDS011;11275;52.488;13.462;2022-12-07T01:16:27;5.63;;;4.38;;
22211;SDS011;11275;52.488;13.462;2022-12-07T01:18:55;5.15;;;3.70;;
22211;SDS011;11275;52.488;13.462;2022-12-07T01:23:50;5.63;;;4.70;;
22211;SDS011;11275;52.488;13.462;2022-12-07T01:26:17;6.47;;;4.60;;
22211;SDS011;11275;52.488;13.462;2022-12-07T01:28:45;5.72;;;4.30;;
22211;SDS011;11275;52.488;13.462;2022-12-07T01:31:12;5.55;;;4.32;;
22211;SDS011;11275;52.488;13.462;2022-12-07T01:33:40;5.88;;;4.43;;
22211;SDS011;11275;52.488;13.462;2022-12-07T01:38:40;5.22;;;4.18;;
22211;SDS011;11275;52.488;13.462;2022-12-07T01:41:07;5.05;;;3.80;;
22211;SDS011;11275;52.488;13.462;2022-12-07T01:43:33;5.68;;;3.85;;
22211;SDS011;11275;52.488;13.462;2022-12-07T01:46:00;4.72;;;3.85;;
22211;SDS011;11275;52.488;13.462;2022-12-07T01:48:34;7.85;;;3.90;;
22211;SDS011;11275;52.488;13.462;2022-12-07T01:51:10;5.05;;;3.97;;
22211;SDS011;11275;52.488;13.462;2022-12-07T01:53:38;4.90;;;3.60;;
22211;SDS011;11275;52.488;13.462;2022-12-07T01:56:07;4.85;;;3.65;;
22211;SDS011;11275;52.488;13.462;2022-12-07T01:58:36;5.45;;;3.22;;
22211;SDS011;11275;52.488;13.462;2022-12-07T02:01:02;4.75;;;3.42;;
22211;SDS011;11275;52.488;13.462;2022-12-07T02:03:38;4.93;;;3.30;;
22211;SDS011;11275;52.488;13.462;2022-12-07T02:06:05;5.00;;;3.40;;
22211;SDS011;11275;52.488;13.462;2022-12-07T02:08:33;4.97;;;3.58;;
22211;SDS011;11275;52.488;13.462;2022-12-07T02:10:59;3.90;;;3.13;;
22211;SDS011;11275;52.488;13.462;2022-12-07T02:13:29;4.20;;;3.15;;
22211;SDS011;11275;52.488;13.462;2022-12-07T02:24:24;4.32;;;3.03;;
22211;SDS011;11275;52.488;13.462;2022-12-07T02:32:43;4.75;;;3.30;;
22211;SDS011;11275;52.488;13.462;2022-12-07T02:35:19;4.40;;;3.40;;
22211;SDS011;11275;52.488;13.462;2022-12-07T02:38:55;4.45;;;3.28;;
22211;SDS011;11275;52.488;13.462;2022-12-07T02:41:48;3.88;;;3.25;;
22211;SDS011;11275;52.488;13.462;2022-12-07T02:44:21;4.25;;;3.25;;
22211;SDS011;11275;52.488;13.462;2022-12-07T02:46:52;4.38;;;3.17;;
22211;SDS011;11275;52.488;13.462;2022-12-07T02:49:22;4.40;;;3.38;;
22211;SDS011;11275;52.488;13.462;2022-12-07T02:51:49;3.75;;;3.03;;
22211;SDS011;11275;52.488;13.462;2022-12-07T02:54:18;4.05;;;3.42;;
22211;SDS011;11275;52.488;13.462;2022-12-07T02:57:01;5.45;;;3.63;;
22211;SDS011;11275;52.488;13.462;2022-12-07T03:16:31;5.03;;;3.95;;
22211;SDS011;11275;52.488;13.462;2022-12-07T03:19:02;6.47;;;4.22;;
22211;SDS011;11275;52.488;13.462;2022-12-07T03:21:42;5.55;;;4.05;;
22211;SDS011;11275;52.488;13.462;2022-12-07T03:24:18;4.75;;;3.80;;
22211;SDS011;11275;52.488;13.462;2022-12-07T03:26:51;5.97;;;4.57;;
22211;SDS011;11275;52.488;13.462;2022-12-07T03:29:27;5.20;;;3.72;;
22211;SDS011;11275;52.488;13.462;2022-12-07T03:32:08;5.55;;;3.50;;
22211;SDS011;11275;52.488;13.462;2022-12-07T03:34:56;5.35;;;3.55;;
22211;SDS011;11275;52.488;13.462;2022-12-07T03:37:26;6.35;;;3.90;;
22211;SDS011;11275;52.488;13.462;2022-12-07T03:40:00;5.35;;;4.00;;
22211;SDS011;11275;52.488;13.462;2022-12-07T03:42:40;5.38;;;4.00;;
22211;SDS011;11275;52.488;13.462;2022-12-07T03:45:06;5.63;;;4.20;;
22211;SDS011;11275;52.488;13.462;2022-12-07T03:47:35;5.88;;;4.25;;
22211;SDS011;11275;52.488;13.462;2022-12-07T03:52:44;5.78;;;4.18;;
22211;SDS011;11275;52.488;13.462;2022-12-07T03:57:45;7.05;;;4.40;;
22211;SDS011;11275;52.488;13.462;2022-12-07T04:00:13;5.85;;;4.95;;
22211;SDS011;11275;52.488;13.462;2022-12-07T04:02:39;6.78;;;4.82;;
22211;SDS011;11275;52.488;13.462;2022-12-07T04:05:06;7.43;;;5.00;;
22211;SDS011;11275;52.488;13.462;2022-12-07T04:07:32;7.32;;;4.72;;
22211;SDS011;11275;52.488;13.462;2022-12-07T04:09:58;8.88;;;5.50;;
22211;SDS011;11275;52.488;13.462;2022-12-07T04:12:24;6.78;;;5.30;;
22211;SDS011;11275;52.488;13.462;2022-12-07T04:14:50;7.03;;;5.57;;
22211;SDS011;11275;52.488;13.462;2022-12-07T04:17:16;8.20;;;5.47;;
22211;SDS011;11275;52.488;13.462;2022-12-07T04:19:41;8.80;;;5.60;;
22211;SDS011;11275;52.488;13.462;2022-12-07T04:22:07;8.20;;;5.75;;
22211;SDS011;11275;52.488;13.462;2022-12-07T04:24:33;8.95;;;5.97;;
22211;SDS011;11275;52.488;13.462;2022-12-07T04:26:59;10.48;;;6.55;;
22211;SDS011;11275;52.488;13.462;2022-12-07T04:29:25;9.02;;;6.60;;
22211;SDS011;11275;52.488;13.462;2022-12-07T04:31:51;9.82;;;6.90;;
22211;SDS011;11275;52.488;13.462;2022-12-07T04:34:18;8.32;;;6.18;;
22211;SDS011;11275;52.488;13.462;2022-12-07T04:36:44;10.80;;;7.03;;
22211;SDS011;11275;52.488;13.462;2022-12-07T04:42:02;10.82;;;7.53;;
22211;SDS011;11275;52.488;13.462;2022-12-07T04:44:29;10.30;;;7.05;;
22211;SDS011;11275;52.488;13.462;2022-12-07T04:46:55;11.55;;;7.72;;
22211;SDS011;11275;52.488;13.462;2022-12-07T04:49:22;10.82;;;7.65;;
22211;SDS011;11275;52.488;13.462;2022-12-07T04:51:48;10.07;;;7.18;;
22211;SDS011;11275;52.488;13.462;2022-12-07T04:54:14;10.95;;;8.35;;
22211;SDS011;11275;52.488;13.462;2022-12-07T04:56:41;11.50;;;8.27;;
22211;SDS011;11275;52.488;13.462;2022-12-07T04:59:07;12.07;;;8.45;;
22211;SDS011;11275;52.488;13.462;2022-12-07T05:01:34;12.95;;;8.73;;
22211;SDS011;11275;52.488;13.462;2022-12-07T05:04:00;13.70;;;8.80;;
22211;SDS011;11275;52.488;13.462;2022-12-07T05:06:26;13.05;;;8.82;;
22211;SDS011;11275;52.488;13.462;2022-12-07T05:08:52;12.38;;;8.57;;
22211;SDS011;11275;52.488;13.462;2022-12-07T05:11:17;11.23;;;8.70;;
22211;SDS011;11275;52.488;13.462;2022-12-07T05:14:02;13.60;;;9.13;;
22211;SDS011;11275;52.488;13.462;2022-12-07T05:16:29;13.52;;;9.25;;
22211;SDS011;11275;52.488;13.462;2022-12-07T05:18:55;13.65;;;8.75;;
22211;SDS011;11275;52.488;13.462;2022-12-07T05:21:21;14.07;;;9.10;;
22211;SDS011;11275;52.488;13.462;2022-12-07T05:23:48;13.80;;;9.65;;
22211;SDS011;11275;52.488;13.462;2022-12-07T05:26:14;13.70;;;9.93;;
22211;SDS011;11275;52.488;13.462;2022-12-07T05:28:39;14.90;;;9.82;;
22211;SDS011;11275;52.488;13.462;2022-12-07T05:31:05;15.48;;;9.98;;
22211;SDS011;11275;52.488;13.462;2022-12-07T05:33:31;14.02;;;9.57;;
22211;SDS011;11275;52.488;13.462;2022-12-07T05:35:57;14.20;;;10.10;;
22211;SDS011;11275;52.488;13.462;2022-12-07T05:38:23;15.45;;;10.07;;
22211;SDS011;11275;52.488;13.462;2022-12-07T05:40:50;14.75;;;10.40;;
22211;SDS011;11275;52.488;13.462;2022-12-07T05:43:16;15.48;;;10.20;;
22211;SDS011;11275;52.488;13.462;2022-12-07T05:45:41;17.13;;;10.82;;
22211;SDS011;11275;52.488;13.462;2022-12-07T05:48:07;15.80;;;10.50;;
22211;SDS011;11275;52.488;13.462;2022-12-07T05:50:33;16.35;;;10.40;;
22211;SDS011;11275;52.488;13.462;2022-12-07T05:52:59;16.77;;;11.00;;
22211;SDS011;11275;52.488;13.462;2022-12-07T05:55:25;16.60;;;11.30;;
22211;SDS011;11275;52.488;13.462;2022-12-07T05:57:50;16.75;;;11.75;;
22211;SDS011;11275;52.488;13.462;2022-12-07T06:00:35;17.58;;;10.88;;
22211;SDS011;11275;52.488;13.462;2022-12-07T06:03:00;17.25;;;11.18;;
22211;SDS011;11275;52.488;13.462;2022-12-07T06:05:26;16.00;;;10.80;;
22211;SDS011;11275;52.488;13.462;2022-12-07T06:07:51;15.95;;;11.20;;
22211;SDS011;11275;52.488;13.462;2022-12-07T06:10:17;20.00;;;12.40;;
22211;SDS011;11275;52.488;13.462;2022-12-07T06:12:43;17.83;;;11.85;;
22211;SDS011;11275;52.488;13.462;2022-12-07T06:15:11;17.88;;;11.43;;
22211;SDS011;11275;52.488;13.462;2022-12-07T06:17:38;17.70;;;10.90;;
22211;SDS011;11275;52.488;13.462;2022-12-07T06:20:04;19.85;;;12.57;;
22211;SDS011;11275;52.488;13.462;2022-12-07T06:22:30;20.83;;;12.48;;
22211;SDS011;11275;52.488;13.462;2022-12-07T06:24:56;20.45;;;13.00;;
22211;SDS011;11275;52.488;13.462;2022-12-07T06:27:21;19.67;;;12.10;;
22211;SDS011;11275;52.488;13.462;2022-12-07T06:29:47;22.33;;;13.43;;
22211;SDS011;11275;52.488;13.462;2022-12-07T06:32:13;19.75;;;12.80;;
22211;SDS011;11275;52.488;13.462;2022-12-07T06:34:38;20.33;;;12.65;;
22211;SDS011;11275;52.488;13.462;2022-12-07T06:37:04;20.70;;;12.10;;
22211;SDS011;11275;52.488;13.462;2022-12-07T06:39:30;20.80;;;12.43;;
22211;SDS011;11275;52.488;13.462;2022-12-07T06:41:56;18.63;;;12.20;;
22211;SDS011;11275;52.488;13.462;2022-12-07T06:44:22;17.48;;;11.50;;
22211;SDS011;11275;52.488;13.462;2022-12-07T06:46:52;18.48;;;11.25;;
22211;SDS011;11275;52.488;13.462;2022-12-07T06:49:18;18.55;;;11.48;;
22211;SDS011;11275;52.488;13.462;2022-12-07T06:51:44;18.38;;;11.57;;
22211;SDS011;11275;52.488;13.462;2022-12-07T06:54:11;21.90;;;13.13;;
22211;SDS011;11275;52.488;13.462;2022-12-07T06:56:38;17.80;;;12.27;;
22211;SDS011;11275;52.488;13.462;2022-12-07T06:59:04;22.30;;;12.77;;
22211;SDS011;11275;52.488;13.462;2022-12-07T07:01:32;19.90;;;12.57;;
22211;SDS011;11275;52.488;13.462;2022-12-07T07:03:58;21.00;;;12.80;;
22211;SDS011;11275;52.488;13.462;2022-12-07T07:06:24;19.85;;;12.75;;
22211;SDS011;11275;52.488;13.462;2022-12-07T07:08:50;18.58;;;12.18;;
22211;SDS011;11275;52.488;13.462;2022-12-07T07:11:16;19.52;;;13.05;;
22211;SDS011;11275;52.488;13.462;2022-12-07T07:13:42;19.60;;;12.60;;
22211;SDS011;11275;52.488;13.462;2022-12-07T07:16:08;20.30;;;12.35;;
22211;SDS011;11275;52.488;13.462;2022-12-07T07:18:34;19.00;;;12.50;;
22211;SDS011;11275;52.488;13.462;2022-12-07T07:21:00;20.83;;;13.35;;
22211;SDS011;11275;52.488;13.462;2022-12-07T07:23:26;18.25;;;12.10;;
22211;SDS011;11275;52.488;13.462;2022-12-07T07:25:52;18.98;;;12.18;;
22211;SDS011;11275;52.488;13.462;2022-12-07T07:28:17;17.95;;;12.52;;
22211;SDS011;11275;52.488;13.462;2022-12-07T07:30:43;17.88;;;12.10;;
22211;SDS011;11275;52.488;13.462;2022-12-07T07:33:09;19.45;;;11.88;;
22211;SDS011;11275;52.488;13.462;2022-12-07T07:35:35;17.10;;;11.93;;
22211;SDS011;11275;52.488;13.462;2022-12-07T07:38:01;15.48;;;11.50;;
22211;SDS011;11275;52.488;13.462;2022-12-07T07:40:27;14.68;;;10.32;;
22211;SDS011;11275;52.488;13.462;2022-12-07T07:42:55;14.93;;;9.90;;
22211;SDS011;11275;52.488;13.462;2022-12-07T07:45:25;10.70;;;7.90;;
22211;SDS011;11275;52.488;13.462;2022-12-07T07:47:52;12.07;;;8.80;;
22211;SDS011;11275;52.488;13.462;2022-12-07T07:50:18;12.50;;;9.20;;
22211;SDS011;11275;52.488;13.462;2022-12-07T07:52:44;13.27;;;9.05;;
22211;SDS011;11275;52.488;13.462;2022-12-07T07:55:10;21.27;;;13.13;;
22211;SDS011;11275;52.488;13.462;2022-12-07T07:57:37;15.55;;;10.32;;
22211;SDS011;11275;52.488;13.462;2022-12-07T08:00:05;13.85;;;9.40;;
22211;SDS011;11275;52.488;13.462;2022-12-07T08:02:35;12.00;;;8.48;;
22211;SDS011;11275;52.488;13.462;2022-12-07T08:05:01;13.43;;;8.10;;
22211;SDS011;11275;52.488;13.462;2022-12-07T08:07:27;11.90;;;7.57;;
22211;SDS011;11275;52.488;13.462;2022-12-07T08:09:53;11.50;;;7.55;;
22211;SDS011;11275;52.488;13.462;2022-12-07T08:12:19;9.77;;;6.82;;
22211;SDS011;11275;52.488;13.462;2022-12-07T08:14:45;9.82;;;6.93;;
22211;SDS011;11275;52.488;13.462;2022-12-07T08:17:10;9.07;;;6.10;;
22211;SDS011;11275;52.488;13.462;2022-12-07T08:19:39;10.15;;;6.10;;
22211;SDS011;11275;52.488;13.462;2022-12-07T08:22:05;8.75;;;6.20;;
22211;SDS011;11275;52.488;13.462;2022-12-07T08:24:34;10.27;;;6.82;;
22211;SDS011;11275;52.488;13.462;2022-12-07T08:27:00;10.75;;;5.57;;
22211;SDS011;11275;52.488;13.462;2022-12-07T08:29:26;9.00;;;5.50;;
22211;SDS011;11275;52.488;13.462;2022-12-07T08:31:52;7.55;;;5.13;;
22211;SDS011;11275;52.488;13.462;2022-12-07T08:34:18;7.78;;;5.07;;
22211;SDS011;11275;52.488;13.462;2022-12-07T08:36:44;7.00;;;4.93;;
22211;SDS011;11275;52.488;13.462;2022-12-07T08:39:09;6.07;;;4.50;;
22211;SDS011;11275;52.488;13.462;2022-12-07T08:41:35;6.18;;;4.57;;
22211;SDS011;11275;52.488;13.462;2022-12-07T08:44:01;5.97;;;4.05;;
22211;SDS011;11275;52.488;13.462;2022-12-07T08:46:30;5.82;;;3.67;;
22211;SDS011;11275;52.488;13.462;2022-12-07T08:49:15;5.07;;;3.58;;
22211;SDS011;11275;52.488;13.462;2022-12-07T08:51:44;4.40;;;2.95;;
22211;SDS011;11275;52.488;13.462;2022-12-07T08:54:11;4.20;;;2.75;;
22211;SDS011;11275;52.488;13.462;2022-12-07T08:56:39;5.28;;;2.33;;
22211;SDS011;11275;52.488;13.462;2022-12-07T08:59:05;3.10;;;1.60;;
22211;SDS011;11275;52.488;13.462;2022-12-07T09:01:32;1.95;;;1.60;;
22211;SDS011;11275;52.488;13.462;2022-12-07T09:03:58;2.95;;;1.67;;
22211;SDS011;11275;52.488;13.462;2022-12-07T09:06:24;1.77;;;1.40;;
22211;SDS011;11275;52.488;13.462;2022-12-07T09:08:51;2.63;;;1.45;;
22211;SDS011;11275;52.488;13.462;2022-12-07T09:11:20;3.63;;;1.53;;
22211;SDS011;11275;52.488;13.462;2022-12-07T09:13:46;1.98;;;1.23;;
22211;SDS011;11275;52.488;13.462;2022-12-07T09:16:11;1.60;;;1.20;;
22211;SDS011;11275;52.488;13.462;2022-12-07T09:18:37;2.00;;;1.10;;
22211;SDS011;11275;52.488;13.462;2022-12-07T09:21:03;1.60;;;1.15;;
22211;SDS011;11275;52.488;13.462;2022-12-07T09:23:29;1.45;;;0.98;;
22211;SDS011;11275;52.488;13.462;2022-12-07T09:25:58;1.77;;;1.10;;
22211;SDS011;11275;52.488;13.462;2022-12-07T09:28:28;1.92;;;1.20;;
22211;SDS011;11275;52.488;13.462;2022-12-07T09:30:55;1.75;;;1.08;;
22211;SDS011;11275;52.488;13.462;2022-12-07T09:33:20;1.60;;;1.15;;
22211;SDS011;11275;52.488;13.462;2022-12-07T09:35:46;1.88;;;1.30;;
22211;SDS011;11275;52.488;13.462;2022-12-07T09:38:14;3.30;;;1.08;;
22211;SDS011;11275;52.488;13.462;2022-12-07T09:40:40;2.55;;;1.40;;
22211;SDS011;11275;52.488;13.462;2022-12-07T09:43:19;2.22;;;1.27;;
22211;SDS011;11275;52.488;13.462;2022-12-07T09:45:48;1.90;;;1.30;;
22211;SDS011;11275;52.488;13.462;2022-12-07T09:48:20;2.20;;;1.30;;
22211;SDS011;11275;52.488;13.462;2022-12-07T09:50:58;2.38;;;1.70;;
22211;SDS011;11275;52.488;13.462;2022-12-07T09:53:27;1.95;;;1.45;;
22211;SDS011;11275;52.488;13.462;2022-12-07T09:55:53;1.60;;;1.10;;
22211;SDS011;11275;52.488;13.462;2022-12-07T09:58:23;2.72;;;1.48;;
22211;SDS011;11275;52.488;13.462;2022-12-07T10:00:55;1.20;;;0.90;;
22211;SDS011;11275;52.488;13.462;2022-12-07T10:03:28;1.83;;;1.10;;
22211;SDS011;11275;52.488;13.462;2022-12-07T10:05:54;1.83;;;1.00;;
22211;SDS011;11275;52.488;13.462;2022-12-07T10:08:21;2.92;;;0.90;;
22211;SDS011;11275;52.488;13.462;2022-12-07T10:10:49;1.27;;;0.82;;
22211;SDS011;11275;52.488;13.462;2022-12-07T10:13:22;1.67;;;0.95;;
22211;SDS011;11275;52.488;13.462;2022-12-07T10:15:59;2.65;;;1.20;;
22211;SDS011;11275;52.488;13.462;2022-12-07T10:21:17;1.60;;;1.08;;
22211;SDS011;11275;52.488;13.462;2022-12-07T10:29:39;2.78;;;1.10;;
22211;SDS011;11275;52.488;13.462;2022-12-07T10:34:32;2.55;;;1.50;;
22211;SDS011;11275;52.488;13.462;2022-12-07T10:42:59;2.00;;;1.15;;
22211;SDS011;11275;52.488;13.462;2022-12-07T10:45:27;3.13;;;1.70;;
22211;SDS011;11275;52.488;13.462;2022-12-07T10:48:05;3.40;;;1.30;;
22211;SDS011;11275;52.488;13.462;2022-12-07T10:50:51;4.50;;;1.40;;
22211;SDS011;11275;52.488;13.462;2022-12-07T10:59:17;3.15;;;1.52;;
22211;SDS011;11275;52.488;13.462;2022-12-07T11:10:40;3.00;;;1.65;;
22211;SDS011;11275;52.488;13.462;2022-12-07T11:22:37;2.67;;;1.88;;
22211;SDS011;11275;52.488;13.462;2022-12-07T11:30:26;3.83;;;2.00;;
22211;SDS011;11275;52.488;13.462;2022-12-07T11:39:03;3.53;;;2.20;;
22211;SDS011;11275;52.488;13.462;2022-12-07T11:41:37;5.28;;;2.13;;
22211;SDS011;11275;52.488;13.462;2022-12-07T11:44:06;2.72;;;1.80;;
22211;SDS011;11275;52.488;13.462;2022-12-07T11:46:54;3.67;;;1.90;;
22211;SDS011;11275;52.488;13.462;2022-12-07T11:49:35;4.53;;;2.28;;
22211;SDS011;11275;52.488;13.462;2022-12-07T11:52:20;3.83;;;1.98;;
22211;SDS011;11275;52.488;13.462;2022-12-07T11:54:52;4.43;;;1.90;;
22211;SDS011;11275;52.488;13.462;2022-12-07T11:57:38;2.83;;;1.95;;
22211;SDS011;11275;52.488;13.462;2022-12-07T12:00:12;4.22;;;1.88;;
22211;SDS011;11275;52.488;13.462;2022-12-07T12:02:50;2.63;;;1.58;;
22211;SDS011;11275;52.488;13.462;2022-12-07T12:05:22;3.55;;;2.00;;
22211;SDS011;11275;52.488;13.462;2022-12-07T12:08:33;4.40;;;2.17;;
22211;SDS011;11275;52.488;13.462;2022-12-07T12:11:32;4.13;;;1.80;;
22211;SDS011;11275;52.488;13.462;2022-12-07T12:19:19;3.38;;;1.55;;
22211;SDS011;11275;52.488;13.462;2022-12-07T12:21:55;4.47;;;1.90;;
22211;SDS011;11275;52.488;13.462;2022-12-07T12:24:26;3.38;;;2.03;;
22211;SDS011;11275;52.488;13.462;2022-12-07T12:27:02;3.70;;;1.60;;
22211;SDS011;11275;52.488;13.462;2022-12-07T12:32:11;4.30;;;1.60;;
22211;SDS011;11275;52.488;13.462;2022-12-07T12:34:57;4.32;;;1.80;;
22211;SDS011;11275;52.488;13.462;2022-12-07T12:37:46;3.75;;;1.80;;
22211;SDS011;11275;52.488;13.462;2022-12-07T12:45:25;4.75;;;1.63;;
22211;SDS011;11275;52.488;13.462;2022-12-07T12:50:31;3.13;;;1.02;;
22211;SDS011;11275;52.488;13.462;2022-12-07T13:00:43;4.03;;;1.30;;
22211;SDS011;11275;52.488;13.462;2022-12-07T13:03:29;3.55;;;1.30;;
22211;SDS011;11275;52.488;13.462;2022-12-07T13:08:50;1.98;;;1.17;;
22211;SDS011;11275;52.488;13.462;2022-12-07T13:13:45;5.00;;;1.45;;
22211;SDS011;11275;52.488;13.462;2022-12-07T13:18:37;5.10;;;1.40;;
22211;SDS011;11275;52.488;13.462;2022-12-07T13:34:33;3.67;;;1.55;;
22211;SDS011;11275;52.488;13.462;2022-12-07T13:37:04;4.93;;;1.52;;
22211;SDS011;11275;52.488;13.462;2022-12-07T13:44:51;2.97;;;1.15;;
22211;SDS011;11275;52.488;13.462;2022-12-07T13:47:23;3.67;;;1.05;;
22211;SDS011;11275;52.488;13.462;2022-12-07T13:50:02;5.70;;;1.25;;
22211;SDS011;11275;52.488;13.462;2022-12-07T13:52:50;5.50;;;1.20;;
22211;SDS011;11275;52.488;13.462;2022-12-07T13:55:21;4.63;;;1.73;;
22211;SDS011;11275;52.488;13.462;2022-12-07T13:57:50;4.10;;;1.30;;
22211;SDS011;11275;52.488;13.462;2022-12-07T14:00:18;3.95;;;1.40;;
22211;SDS011;11275;52.488;13.462;2022-12-07T14:05:26;6.20;;;1.10;;
22211;SDS011;11275;52.488;13.462;2022-12-07T14:10:41;1.85;;;0.88;;
22211;SDS011;11275;52.488;13.462;2022-12-07T14:15:59;2.47;;;0.90;;
22211;SDS011;11275;52.488;13.462;2022-12-07T14:21:02;4.47;;;1.13;;
22211;SDS011;11275;52.488;13.462;2022-12-07T14:26:32;3.78;;;1.17;;
22211;SDS011;11275;52.488;13.462;2022-12-07T14:29:19;2.80;;;1.02;;
22211;SDS011;11275;52.488;13.462;2022-12-07T14:32:25;2.92;;;1.23;;
22211;SDS011;11275;52.488;13.462;2022-12-07T14:35:01;4.03;;;1.50;;
22211;SDS011;11275;52.488;13.462;2022-12-07T14:37:38;3.55;;;1.23;;
22211;SDS011;11275;52.488;13.462;2022-12-07T14:40:05;6.10;;;1.40;;
22211;SDS011;11275;52.488;13.462;2022-12-07T14:42:32;4.28;;;1.40;;
22211;SDS011;11275;52.488;13.462;2022-12-07T14:44:59;2.42;;;1.27;;
22211;SDS011;11275;52.488;13.462;2022-12-07T14:47:25;6.93;;;1.70;;
22211;SDS011;11275;52.488;13.462;2022-12-07T14:49:51;5.68;;;1.20;;
22211;SDS011;11275;52.488;13.462;2022-12-07T14:52:22;4.35;;;1.25;;
22211;SDS011;11275;52.488;13.462;2022-12-07T14:54:51;2.70;;;0.80;;
22211;SDS011;11275;52.488;13.462;2022-12-07T14:57:17;4.95;;;1.25;;
22211;SDS011;11275;52.488;13.462;2022-12-07T14:59:43;5.68;;;1.30;;
22211;SDS011;11275;52.488;13.462;2022-12-07T15:02:09;4.40;;;1.10;;
22211;SDS011;11275;52.488;13.462;2022-12-07T15:04:37;2.63;;;1.05;;
22211;SDS011;11275;52.488;13.462;2022-12-07T15:07:04;4.05;;;1.42;;
22211;SDS011;11275;52.488;13.462;2022-12-07T15:09:34;3.97;;;1.25;;
22211;SDS011;11275;52.488;13.462;2022-12-07T15:11:59;4.18;;;1.27;;
22211;SDS011;11275;52.488;13.462;2022-12-07T15:14:25;3.97;;;1.50;;
22211;SDS011;11275;52.488;13.462;2022-12-07T15:16:51;3.75;;;1.10;;
22211;SDS011;11275;52.488;13.462;2022-12-07T15:19:17;5.97;;;1.38;;
22211;SDS011;11275;52.488;13.462;2022-12-07T15:21:50;5.10;;;1.33;;
22211;SDS011;11275;52.488;13.462;2022-12-07T15:24:17;8.95;;;1.40;;
22211;SDS011;11275;52.488;13.462;2022-12-07T15:26:43;5.45;;;1.13;;
22211;SDS011;11275;52.488;13.462;2022-12-07T15:29:09;4.07;;;0.90;;
22211;SDS011;11275;52.488;13.462;2022-12-07T15:31:35;11.52;;;5.15;;
22211;SDS011;11275;52.488;13.462;2022-12-07T15:34:01;6.28;;;1.83;;
22211;SDS011;11275;52.488;13.462;2022-12-07T15:36:28;3.88;;;1.23;;
22211;SDS011;11275;52.488;13.462;2022-12-07T15:38:55;5.47;;;1.20;;
22211;SDS011;11275;52.488;13.462;2022-12-07T15:41:21;5.32;;;1.15;;
22211;SDS011;11275;52.488;13.462;2022-12-07T15:43:47;8.18;;;2.83;;
22211;SDS011;11275;52.488;13.462;2022-12-07T15:46:32;4.75;;;1.20;;
22211;SDS011;11275;52.488;13.462;2022-12-07T15:48:59;3.13;;;1.17;;
22211;SDS011;11275;52.488;13.462;2022-12-07T15:51:26;7.57;;;1.27;;
22211;SDS011;11275;52.488;13.462;2022-12-07T15:53:52;2.22;;;1.05;;
22211;SDS011;11275;52.488;13.462;2022-12-07T15:56:18;4.78;;;1.20;;
22211;SDS011;11275;52.488;13.462;2022-12-07T15:58:44;3.33;;;1.30;;
22211;SDS011;11275;52.488;13.462;2022-12-07T16:01:10;4.13;;;1.17;;
22211;SDS011;11275;52.488;13.462;2022-12-07T16:03:40;5.13;;;1.23;;
22211;SDS011;11275;52.488;13.462;2022-12-07T16:06:06;2.80;;;1.30;;
22211;SDS011;11275;52.488;13.462;2022-12-07T16:08:32;6.80;;;1.60;;
22211;SDS011;11275;52.488;13.462;2022-12-07T16:10:58;4.70;;;1.45;;
22211;SDS011;11275;52.488;13.462;2022-12-07T16:13:24;1.90;;;1.05;;
22211;SDS011;11275;52.488;13.462;2022-12-07T16:15:50;4.43;;;1.20;;
22211;SDS011;11275;52.488;13.462;2022-12-07T16:18:15;5.68;;;1.35;;
22211;SDS011;11275;52.488;13.462;2022-12-07T16:20:41;2.95;;;0.95;;
22211;SDS011;11275;52.488;13.462;2022-12-07T16:23:06;7.30;;;1.17;;
22211;SDS011;11275;52.488;13.462;2022-12-07T16:25:33;4.85;;;1.13;;
22211;SDS011;11275;52.488;13.462;2022-12-07T16:27:59;5.00;;;1.40;;
22211;SDS011;11275;52.488;13.462;2022-12-07T16:30:24;6.55;;;1.85;;
22211;SDS011;11275;52.488;13.462;2022-12-07T16:32:50;6.05;;;1.27;;
22211;SDS011;11275;52.488;13.462;2022-12-07T16:35:16;6.78;;;1.27;;
22211;SDS011;11275;52.488;13.462;2022-12-07T16:37:42;3.85;;;1.40;;
22211;SDS011;11275;52.488;13.462;2022-12-07T16:40:08;5.70;;;1.33;;
22211;SDS011;11275;52.488;13.462;2022-12-07T16:42:35;3.83;;;1.63;;
22211;SDS011;11275;52.488;13.462;2022-12-07T16:45:01;4.18;;;1.67;;
22211;SDS011;11275;52.488;13.462;2022-12-07T16:47:27;3.17;;;1.30;;
22211;SDS011;11275;52.488;13.462;2022-12-07T16:49:53;4.70;;;1.30;;
22211;SDS011;11275;52.488;13.462;2022-12-07T16:52:19;5.63;;;1.40;;
22211;SDS011;11275;52.488;13.462;2022-12-07T16:54:45;10.70;;;4.95;;
22211;SDS011;11275;52.488;13.462;2022-12-07T16:57:11;8.95;;;4.43;;
22211;SDS011;11275;52.488;13.462;2022-12-07T16:59:37;9.20;;;3.70;;
22211;SDS011;11275;52.488;13.462;2022-12-07T17:02:02;8.57;;;3.40;;
22211;SDS011;11275;52.488;13.462;2022-12-07T17:04:28;7.10;;;2.42;;
22211;SDS011;11275;52.488;13.462;2022-12-07T17:06:54;4.22;;;1.80;;
22211;SDS011;11275;52.488;13.462;2022-12-07T17:09:20;3.80;;;1.38;;
22211;SDS011;11275;52.488;13.462;2022-12-07T17:11:48;4.07;;;1.23;;
22211;SDS011;11275;52.488;13.462;2022-12-07T17:14:14;4.93;;;1.55;;
22211;SDS011;11275;52.488;13.462;2022-12-07T17:16:58;6.38;;;1.75;;
22211;SDS011;11275;52.488;13.462;2022-12-07T17:19:25;9.55;;;3.53;;